sensor_id;sensor_type;location;lat;lon;timestamp;temperature;humidity
13245;DHT22;6689;53.400;12.486;2023-06-26T00:00:07;21.50;1.00
13245;DHT22;6689;53.400;12.486;2023-06-26T00:02:35;21.50;1.00
13245;DHT22;6689;53.400;12.486;2023-06-26T00:05:02;21.50;1.00
13245;DHT22;6689;53.400;12.486;2023-06-26T00:07:30;21.50;1.00
13245;DHT22;6689;53.400;12.486;2023-06-26T00:09:59;21.50;1.00
13245;DHT22;6689;53.400;12.486;2023-06-26T00:12:28;21.50;1.00
13245;DHT22;6689;53.400;12.486;2023-06-26T00:14:56;21.50;1.00
13245;DHT22;6689;53.400;12.486;2023-06-26T00:17:25;21.50;1.00
13245;DHT22;6689;53.400;12.486;2023-06-26T00:19:52;21.50;1.00
13245;DHT22;6689;53.400;12.486;2023-06-26T00:22:21;21.50;1.00
13245;DHT22;6689;53.400;12.486;2023-06-26T00:24:48;21.40;1.00
13245;DHT22;6689;53.400;12.486;2023-06-26T00:27:15;21.40;1.00
13245;DHT22;6689;53.400;12.486;2023-06-26T00:29:43;21.40;1.00
13245;DHT22;6689;53.400;12.486;2023-06-26T00:32:10;21.40;1.00
13245;DHT22;6689;53.400;12.486;2023-06-26T00:34:39;21.40;1.00
13245;DHT22;6689;53.400;12.486;2023-06-26T00:37:06;21.40;1.00
13245;DHT22;6689;53.400;12.486;2023-06-26T00:39:33;21.40;1.00
13245;DHT22;6689;53.400;12.486;2023-06-26T00:42:00;21.40;1.00
13245;DHT22;6689;53.400;12.486;2023-06-26T00:44:29;21.40;1.00
13245;DHT22;6689;53.400;12.486;2023-06-26T00:46:57;21.40;1.00
13245;DHT22;6689;53.400;12.486;2023-06-26T00:49:24;21.40;1.00
13245;DHT22;6689;53.400;12.486;2023-06-26T00:51:54;21.30;1.00
13245;DHT22;6689;53.400;12.486;2023-06-26T00:54:22;21.30;1.00
13245;DHT22;6689;53.400;12.486;2023-06-26T00:56:50;21.30;1.00
13245;DHT22;6689;53.400;12.486;2023-06-26T00:59:17;21.30;1.00
13245;DHT22;6689;53.400;12.486;2023-06-26T01:01:44;21.30;1.00
13245;DHT22;6689;53.400;12.486;2023-06-26T01:04:12;21.30;1.00
13245;DHT22;6689;53.400;12.486;2023-06-26T01:06:44;21.30;1.00
13245;DHT22;6689;53.400;12.486;2023-06-26T01:09:18;21.30;1.00
13245;DHT22;6689;53.400;12.486;2023-06-26T01:11:46;21.30;1.00
13245;DHT22;6689;53.400;12.486;2023-06-26T01:14:13;21.30;1.00
13245;DHT22;6689;53.400;12.486;2023-06-26T01:16:41;21.30;1.00
13245;DHT22;6689;53.400;12.486;2023-06-26T01:19:19;21.30;1.00
13245;DHT22;6689;53.400;12.486;2023-06-26T01:21:54;21.30;1.00
13245;DHT22;6689;53.400;12.486;2023-06-26T01:24:32;21.30;1.00
13245;DHT22;6689;53.400;12.486;2023-06-26T01:27:04;21.30;1.00
13245;DHT22;6689;53.400;12.486;2023-06-26T01:29:32;21.20;1.00
13245;DHT22;6689;53.400;12.486;2023-06-26T01:32:01;21.20;1.00
13245;DHT22;6689;53.400;12.486;2023-06-26T01:34:29;21.20;1.00
13245;DHT22;6689;53.400;12.486;2023-06-26T01:36:57;21.20;1.00
13245;DHT22;6689;53.400;12.486;2023-06-26T01:39:24;21.20;1.00
13245;DHT22;6689;53.400;12.486;2023-06-26T01:41:55;21.20;1.00
13245;DHT22;6689;53.400;12.486;2023-06-26T01:44:27;21.20;1.00
13245;DHT22;6689;53.400;12.486;2023-06-26T01:47:00;21.20;1.00
13245;DHT22;6689;53.400;12.486;2023-06-26T01:49:37;21.20;1.00
13245;DHT22;6689;53.400;12.486;2023-06-26T01:52:11;21.20;1.00
13245;DHT22;6689;53.400;12.486;2023-06-26T01:54:54;21.10;1.00
13245;DHT22;6689;53.400;12.486;2023-06-26T01:57:23;21.00;1.00
13245;DHT22;6689;53.400;12.486;2023-06-26T01:59:55;21.00;1.00
13245;DHT22;6689;53.400;12.486;2023-06-26T02:02:24;20.90;1.00
13245;DHT22;6689;53.400;12.486;2023-06-26T02:04:51;20.90;1.00
13245;DHT22;6689;53.400;12.486;2023-06-26T02:07:18;20.90;1.00
13245;DHT22;6689;53.400;12.486;2023-06-26T02:09:45;20.90;1.00
13245;DHT22;6689;53.400;12.486;2023-06-26T02:12:13;20.80;1.00
13245;DHT22;6689;53.400;12.486;2023-06-26T02:14:40;20.90;1.00
13245;DHT22;6689;53.400;12.486;2023-06-26T02:17:16;20.80;1.00
13245;DHT22;6689;53.400;12.486;2023-06-26T02:19:43;20.80;1.00
13245;DHT22;6689;53.400;12.486;2023-06-26T02:22:13;20.80;1.00
13245;DHT22;6689;53.400;12.486;2023-06-26T02:24:41;20.70;1.00
13245;DHT22;6689;53.400;12.486;2023-06-26T02:27:08;20.70;1.00
13245;DHT22;6689;53.400;12.486;2023-06-26T02:29:36;20.70;1.00
13245;DHT22;6689;53.400;12.486;2023-06-26T02:32:08;20.60;1.00
13245;DHT22;6689;53.400;12.486;2023-06-26T02:34:35;20.60;1.00
13245;DHT22;6689;53.400;12.486;2023-06-26T02:37:03;20.60;1.00
13245;DHT22;6689;53.400;12.486;2023-06-26T02:39:32;20.60;1.00
13245;DHT22;6689;53.400;12.486;2023-06-26T02:41:59;20.60;1.00
13245;DHT22;6689;53.400;12.486;2023-06-26T02:44:26;20.60;1.00
13245;DHT22;6689;53.400;12.486;2023-06-26T02:46:54;20.60;1.00
13245;DHT22;6689;53.400;12.486;2023-06-26T02:49:23;20.60;1.00
13245;DHT22;6689;53.400;12.486;2023-06-26T02:51:50;20.60;1.00
13245;DHT22;6689;53.400;12.486;2023-06-26T02:54:17;20.50;1.00
13245;DHT22;6689;53.400;12.486;2023-06-26T02:56:44;20.60;1.00
13245;DHT22;6689;53.400;12.486;2023-06-26T02:59:12;20.60;1.00
13245;DHT22;6689;53.400;12.486;2023-06-26T03:01:39;20.60;1.00
13245;DHT22;6689;53.400;12.486;2023-06-26T03:04:06;20.60;1.00
13245;DHT22;6689;53.400;12.486;2023-06-26T03:06:35;20.60;1.00
13245;DHT22;6689;53.400;12.486;2023-06-26T03:09:02;20.60;1.00
13245;DHT22;6689;53.400;12.486;2023-06-26T03:11:29;20.60;1.00
13245;DHT22;6689;53.400;12.486;2023-06-26T03:13:56;20.60;1.00
13245;DHT22;6689;53.400;12.486;2023-06-26T03:16:24;20.60;1.00
13245;DHT22;6689;53.400;12.486;2023-06-26T03:18:53;20.60;1.00
13245;DHT22;6689;53.400;12.486;2023-06-26T03:21:20;20.70;1.00
13245;DHT22;6689;53.400;12.486;2023-06-26T03:23:49;20.70;3.90
13245;DHT22;6689;53.400;12.486;2023-06-26T03:26:16;20.70;4.70
13245;DHT22;6689;53.400;12.486;2023-06-26T03:28:44;20.70;3.50
13245;DHT22;6689;53.400;12.486;2023-06-26T03:31:13;20.70;4.10
13245;DHT22;6689;53.400;12.486;2023-06-26T03:33:40;20.80;4.70
13245;DHT22;6689;53.400;12.486;2023-06-26T03:36:08;20.70;6.20
13245;DHT22;6689;53.400;12.486;2023-06-26T03:38:35;20.80;9.50
13245;DHT22;6689;53.400;12.486;2023-06-26T03:41:04;20.80;10.10
13245;DHT22;6689;53.400;12.486;2023-06-26T03:43:31;20.80;8.10
13245;DHT22;6689;53.400;12.486;2023-06-26T03:45:58;20.90;8.70
13245;DHT22;6689;53.400;12.486;2023-06-26T03:48:25;20.90;8.20
13245;DHT22;6689;53.400;12.486;2023-06-26T03:50:53;20.90;7.00
13245;DHT22;6689;53.400;12.486;2023-06-26T03:53:20;20.90;5.70
13245;DHT22;6689;53.400;12.486;2023-06-26T03:55:47;20.90;5.30
13245;DHT22;6689;53.400;12.486;2023-06-26T03:58:16;21.00;5.80
13245;DHT22;6689;53.400;12.486;2023-06-26T04:00:44;21.00;4.50
13245;DHT22;6689;53.400;12.486;2023-06-26T04:03:12;21.10;3.60
13245;DHT22;6689;53.400;12.486;2023-06-26T04:05:40;21.10;2.80
13245;DHT22;6689;53.400;12.486;2023-06-26T04:08:07;21.20;2.10
13245;DHT22;6689;53.400;12.486;2023-06-26T04:10:34;21.20;1.00
13245;DHT22;6689;53.400;12.486;2023-06-26T04:13:03;21.20;1.00
13245;DHT22;6689;53.400;12.486;2023-06-26T04:15:31;21.30;1.00
13245;DHT22;6689;53.400;12.486;2023-06-26T04:17:59;21.70;1.00
13245;DHT22;6689;53.400;12.486;2023-06-26T04:20:26;22.30;1.00
13245;DHT22;6689;53.400;12.486;2023-06-26T04:22:53;22.70;1.00
13245;DHT22;6689;53.400;12.486;2023-06-26T04:25:21;23.10;1.00
13245;DHT22;6689;53.400;12.486;2023-06-26T04:27:48;23.40;1.00
13245;DHT22;6689;53.400;12.486;2023-06-26T04:30:16;23.70;1.00
13245;DHT22;6689;53.400;12.486;2023-06-26T04:32:47;24.00;1.00
13245;DHT22;6689;53.400;12.486;2023-06-26T04:35:14;24.40;1.00
13245;DHT22;6689;53.400;12.486;2023-06-26T04:37:41;24.70;1.00
13245;DHT22;6689;53.400;12.486;2023-06-26T04:40:09;24.90;1.00
13245;DHT22;6689;53.400;12.486;2023-06-26T04:42:37;25.10;1.00
13245;DHT22;6689;53.400;12.486;2023-06-26T04:45:05;25.20;1.00
13245;DHT22;6689;53.400;12.486;2023-06-26T04:47:32;25.30;1.00
13245;DHT22;6689;53.400;12.486;2023-06-26T04:50:16;25.30;1.00
13245;DHT22;6689;53.400;12.486;2023-06-26T04:52:44;25.40;1.00
13245;DHT22;6689;53.400;12.486;2023-06-26T04:55:11;25.40;1.00
13245;DHT22;6689;53.400;12.486;2023-06-26T04:57:39;25.40;1.00
13245;DHT22;6689;53.400;12.486;2023-06-26T05:00:07;25.40;1.00
13245;DHT22;6689;53.400;12.486;2023-06-26T05:02:35;25.40;1.00
13245;DHT22;6689;53.400;12.486;2023-06-26T05:05:02;25.40;1.00
13245;DHT22;6689;53.400;12.486;2023-06-26T05:07:31;25.40;1.00
13245;DHT22;6689;53.400;12.486;2023-06-26T05:09:58;25.30;1.00
13245;DHT22;6689;53.400;12.486;2023-06-26T05:12:26;25.40;1.00
13245;DHT22;6689;53.400;12.486;2023-06-26T05:14:53;25.30;1.00
13245;DHT22;6689;53.400;12.486;2023-06-26T05:17:20;25.30;1.00
13245;DHT22;6689;53.400;12.486;2023-06-26T05:19:47;25.30;1.00
13245;DHT22;6689;53.400;12.486;2023-06-26T05:22:15;25.30;1.00
13245;DHT22;6689;53.400;12.486;2023-06-26T05:24:46;25.40;1.00
13245;DHT22;6689;53.400;12.486;2023-06-26T05:27:14;25.40;1.00
13245;DHT22;6689;53.400;12.486;2023-06-26T05:29:47;25.50;1.00
13245;DHT22;6689;53.400;12.486;2023-06-26T05:32:17;25.50;1.00
13245;DHT22;6689;53.400;12.486;2023-06-26T05:34:46;25.60;1.00
13245;DHT22;6689;53.400;12.486;2023-06-26T05:37:18;25.70;1.00
13245;DHT22;6689;53.400;12.486;2023-06-26T05:39:49;25.80;1.00
13245;DHT22;6689;53.400;12.486;2023-06-26T05:42:17;25.90;1.00
13245;DHT22;6689;53.400;12.486;2023-06-26T05:44:44;26.00;1.00
13245;DHT22;6689;53.400;12.486;2023-06-26T05:47:11;26.10;1.00
13245;DHT22;6689;53.400;12.486;2023-06-26T05:49:39;26.10;1.00
13245;DHT22;6689;53.400;12.486;2023-06-26T05:52:07;26.20;1.00
13245;DHT22;6689;53.400;12.486;2023-06-26T05:54:35;26.30;1.00
13245;DHT22;6689;53.400;12.486;2023-06-26T05:57:04;26.30;1.00
13245;DHT22;6689;53.400;12.486;2023-06-26T05:59:32;26.40;1.00
13245;DHT22;6689;53.400;12.486;2023-06-26T06:02:00;26.50;1.00
13245;DHT22;6689;53.400;12.486;2023-06-26T06:04:27;26.50;1.00
13245;DHT22;6689;53.400;12.486;2023-06-26T06:06:54;26.50;1.00
13245;DHT22;6689;53.400;12.486;2023-06-26T06:09:21;26.60;1.00
13245;DHT22;6689;53.400;12.486;2023-06-26T06:11:48;26.70;1.00
13245;DHT22;6689;53.400;12.486;2023-06-26T06:14:17;26.80;1.00
13245;DHT22;6689;53.400;12.486;2023-06-26T06:16:44;26.80;1.00
13245;DHT22;6689;53.400;12.486;2023-06-26T06:19:11;26.90;1.00
13245;DHT22;6689;53.400;12.486;2023-06-26T06:21:39;27.10;1.00
13245;DHT22;6689;53.400;12.486;2023-06-26T06:24:06;27.10;1.00
13245;DHT22;6689;53.400;12.486;2023-06-26T06:26:35;27.20;1.00
13245;DHT22;6689;53.400;12.486;2023-06-26T06:29:02;27.30;1.00
13245;DHT22;6689;53.400;12.486;2023-06-26T06:31:31;27.40;1.00
13245;DHT22;6689;53.400;12.486;2023-06-26T06:33:59;27.50;99.90
13245;DHT22;6689;53.400;12.486;2023-06-26T06:36:26;27.50;99.90
13245;DHT22;6689;53.400;12.486;2023-06-26T06:38:54;27.60;99.90
13245;DHT22;6689;53.400;12.486;2023-06-26T06:41:21;27.60;99.90
13245;DHT22;6689;53.400;12.486;2023-06-26T06:43:48;27.70;99.90
13245;DHT22;6689;53.400;12.486;2023-06-26T06:46:15;27.70;99.90
13245;DHT22;6689;53.400;12.486;2023-06-26T06:48:44;27.80;99.90
13245;DHT22;6689;53.400;12.486;2023-06-26T06:51:12;27.90;99.90
13245;DHT22;6689;53.400;12.486;2023-06-26T06:53:39;28.00;99.90
13245;DHT22;6689;53.400;12.486;2023-06-26T06:56:06;28.10;99.90
13245;DHT22;6689;53.400;12.486;2023-06-26T06:58:34;28.20;99.90
13245;DHT22;6689;53.400;12.486;2023-06-26T07:01:02;28.30;99.90
13245;DHT22;6689;53.400;12.486;2023-06-26T07:03:30;28.30;99.90
13245;DHT22;6689;53.400;12.486;2023-06-26T07:05:58;28.30;99.90
13245;DHT22;6689;53.400;12.486;2023-06-26T07:08:25;28.40;99.90
13245;DHT22;6689;53.400;12.486;2023-06-26T07:10:53;28.40;99.90
13245;DHT22;6689;53.400;12.486;2023-06-26T07:13:22;28.50;99.90
13245;DHT22;6689;53.400;12.486;2023-06-26T07:15:49;28.50;99.90
13245;DHT22;6689;53.400;12.486;2023-06-26T07:18:17;28.60;99.90
13245;DHT22;6689;53.400;12.486;2023-06-26T07:20:44;28.70;99.90
13245;DHT22;6689;53.400;12.486;2023-06-26T07:23:13;28.80;99.90
13245;DHT22;6689;53.400;12.486;2023-06-26T07:25:40;28.80;99.90
13245;DHT22;6689;53.400;12.486;2023-06-26T07:28:10;29.00;99.90
13245;DHT22;6689;53.400;12.486;2023-06-26T07:30:37;29.10;99.90
13245;DHT22;6689;53.400;12.486;2023-06-26T07:33:05;29.30;99.90
13245;DHT22;6689;53.400;12.486;2023-06-26T07:35:33;29.40;99.90
13245;DHT22;6689;53.400;12.486;2023-06-26T07:38:00;29.40;99.90
13245;DHT22;6689;53.400;12.486;2023-06-26T07:40:29;29.40;99.90
13245;DHT22;6689;53.400;12.486;2023-06-26T07:42:56;29.50;99.90
13245;DHT22;6689;53.400;12.486;2023-06-26T07:45:24;29.50;99.90
13245;DHT22;6689;53.400;12.486;2023-06-26T07:47:51;29.60;99.90
13245;DHT22;6689;53.400;12.486;2023-06-26T07:50:18;29.60;99.90
13245;DHT22;6689;53.400;12.486;2023-06-26T07:52:48;29.60;99.90
13245;DHT22;6689;53.400;12.486;2023-06-26T07:55:16;29.70;99.90
13245;DHT22;6689;53.400;12.486;2023-06-26T07:57:44;29.80;99.90
13245;DHT22;6689;53.400;12.486;2023-06-26T08:00:12;29.80;99.90
13245;DHT22;6689;53.400;12.486;2023-06-26T08:02:40;29.90;99.90
13245;DHT22;6689;53.400;12.486;2023-06-26T08:05:07;29.90;99.90
13245;DHT22;6689;53.400;12.486;2023-06-26T08:07:34;30.00;99.90
13245;DHT22;6689;53.400;12.486;2023-06-26T08:10:02;30.10;99.90
13245;DHT22;6689;53.400;12.486;2023-06-26T08:12:30;30.00;99.90
13245;DHT22;6689;53.400;12.486;2023-06-26T08:14:58;30.20;99.90
13245;DHT22;6689;53.400;12.486;2023-06-26T08:17:28;30.30;99.90
13245;DHT22;6689;53.400;12.486;2023-06-26T08:19:55;30.30;99.90
13245;DHT22;6689;53.400;12.486;2023-06-26T08:22:23;30.40;99.90
13245;DHT22;6689;53.400;12.486;2023-06-26T08:24:50;30.50;99.90
13245;DHT22;6689;53.400;12.486;2023-06-26T08:27:17;30.60;99.90
13245;DHT22;6689;53.400;12.486;2023-06-26T08:29:44;30.80;99.90
13245;DHT22;6689;53.400;12.486;2023-06-26T08:32:13;30.90;99.90
13245;DHT22;6689;53.400;12.486;2023-06-26T08:34:40;31.00;99.90
13245;DHT22;6689;53.400;12.486;2023-06-26T08:37:07;31.10;99.90
13245;DHT22;6689;53.400;12.486;2023-06-26T08:39:35;31.00;99.90
13245;DHT22;6689;53.400;12.486;2023-06-26T08:42:03;31.00;99.90
13245;DHT22;6689;53.400;12.486;2023-06-26T08:44:30;31.00;99.90
13245;DHT22;6689;53.400;12.486;2023-06-26T08:46:59;30.90;99.90
13245;DHT22;6689;53.400;12.486;2023-06-26T08:49:34;31.00;99.90
13245;DHT22;6689;53.400;12.486;2023-06-26T08:52:11;31.00;99.90
13245;DHT22;6689;53.400;12.486;2023-06-26T08:54:45;31.10;99.90
13245;DHT22;6689;53.400;12.486;2023-06-26T08:57:17;31.10;99.90
13245;DHT22;6689;53.400;12.486;2023-06-26T08:59:47;31.20;99.90
13245;DHT22;6689;53.400;12.486;2023-06-26T09:02:14;31.20;99.90
13245;DHT22;6689;53.400;12.486;2023-06-26T09:04:43;31.30;99.90
13245;DHT22;6689;53.400;12.486;2023-06-26T09:07:10;31.40;99.90
13245;DHT22;6689;53.400;12.486;2023-06-26T09:09:38;31.50;99.90
13245;DHT22;6689;53.400;12.486;2023-06-26T09:12:05;31.60;99.90
13245;DHT22;6689;53.400;12.486;2023-06-26T09:14:33;31.60;99.90
13245;DHT22;6689;53.400;12.486;2023-06-26T09:17:00;31.70;99.90
13245;DHT22;6689;53.400;12.486;2023-06-26T09:19:27;31.70;99.90
13245;DHT22;6689;53.400;12.486;2023-06-26T09:21:56;31.80;99.90
13245;DHT22;6689;53.400;12.486;2023-06-26T09:24:23;31.80;99.90
13245;DHT22;6689;53.400;12.486;2023-06-26T09:26:51;31.90;99.90
13245;DHT22;6689;53.400;12.486;2023-06-26T09:29:19;31.80;99.90
13245;DHT22;6689;53.400;12.486;2023-06-26T09:31:47;31.90;99.90
13245;DHT22;6689;53.400;12.486;2023-06-26T09:34:14;31.90;99.90
13245;DHT22;6689;53.400;12.486;2023-06-26T09:36:41;32.00;99.90
13245;DHT22;6689;53.400;12.486;2023-06-26T09:39:13;32.10;99.90
13245;DHT22;6689;53.400;12.486;2023-06-26T09:41:42;32.20;99.90
13245;DHT22;6689;53.400;12.486;2023-06-26T09:44:11;32.30;99.90
13245;DHT22;6689;53.400;12.486;2023-06-26T09:46:40;32.20;99.90
13245;DHT22;6689;53.400;12.486;2023-06-26T09:49:09;32.40;99.90
13245;DHT22;6689;53.400;12.486;2023-06-26T09:51:38;32.40;99.90
13245;DHT22;6689;53.400;12.486;2023-06-26T09:54:06;32.50;99.90
13245;DHT22;6689;53.400;12.486;2023-06-26T09:56:36;32.50;99.90
13245;DHT22;6689;53.400;12.486;2023-06-26T09:59:04;32.60;99.90
13245;DHT22;6689;53.400;12.486;2023-06-26T10:01:33;32.40;99.90
13245;DHT22;6689;53.400;12.486;2023-06-26T10:04:00;32.40;99.90
13245;DHT22;6689;53.400;12.486;2023-06-26T10:06:33;32.40;99.90
13245;DHT22;6689;53.400;12.486;2023-06-26T10:09:02;32.60;99.90
13245;DHT22;6689;53.400;12.486;2023-06-26T10:11:36;32.60;99.90
13245;DHT22;6689;53.400;12.486;2023-06-26T10:14:06;32.70;99.90
13245;DHT22;6689;53.400;12.486;2023-06-26T10:16:36;32.90;99.90
13245;DHT22;6689;53.400;12.486;2023-06-26T10:19:06;32.90;99.90
13245;DHT22;6689;53.400;12.486;2023-06-26T10:21:37;33.10;99.90
13245;DHT22;6689;53.400;12.486;2023-06-26T10:24:06;33.10;99.90
13245;DHT22;6689;53.400;12.486;2023-06-26T10:26:37;33.20;99.90
13245;DHT22;6689;53.400;12.486;2023-06-26T10:29:06;33.20;99.90
13245;DHT22;6689;53.400;12.486;2023-06-26T10:31:34;33.30;99.90
13245;DHT22;6689;53.400;12.486;2023-06-26T10:34:02;33.40;99.90
13245;DHT22;6689;53.400;12.486;2023-06-26T10:36:31;33.50;99.90
13245;DHT22;6689;53.400;12.486;2023-06-26T10:39:03;33.50;99.90
13245;DHT22;6689;53.400;12.486;2023-06-26T10:41:38;33.60;99.90
13245;DHT22;6689;53.400;12.486;2023-06-26T10:44:09;33.70;99.90
13245;DHT22;6689;53.400;12.486;2023-06-26T10:46:50;33.60;99.90
13245;DHT22;6689;53.400;12.486;2023-06-26T10:49:18;33.80;99.90
13245;DHT22;6689;53.400;12.486;2023-06-26T10:51:48;33.80;99.90
13245;DHT22;6689;53.400;12.486;2023-06-26T10:54:20;33.70;99.90
13245;DHT22;6689;53.400;12.486;2023-06-26T10:56:54;33.60;99.90
13245;DHT22;6689;53.400;12.486;2023-06-26T10:59:24;33.50;99.90
13245;DHT22;6689;53.400;12.486;2023-06-26T11:01:57;33.50;99.90
13245;DHT22;6689;53.400;12.486;2023-06-26T11:04:38;33.50;99.90
13245;DHT22;6689;53.400;12.486;2023-06-26T11:07:16;33.60;99.90
13245;DHT22;6689;53.400;12.486;2023-06-26T11:09:57;33.70;99.90
13245;DHT22;6689;53.400;12.486;2023-06-26T11:12:37;33.80;99.90
13245;DHT22;6689;53.400;12.486;2023-06-26T11:15:08;33.80;99.90
13245;DHT22;6689;53.400;12.486;2023-06-26T11:17:36;33.90;99.90
13245;DHT22;6689;53.400;12.486;2023-06-26T11:20:06;33.90;99.90
13245;DHT22;6689;53.400;12.486;2023-06-26T11:22:36;34.10;99.90
13245;DHT22;6689;53.400;12.486;2023-06-26T11:25:05;34.00;99.90
13245;DHT22;6689;53.400;12.486;2023-06-26T11:27:35;34.10;99.90
13245;DHT22;6689;53.400;12.486;2023-06-26T11:30:07;34.20;99.90
13245;DHT22;6689;53.400;12.486;2023-06-26T11:32:35;34.10;99.90
13245;DHT22;6689;53.400;12.486;2023-06-26T11:35:03;34.10;99.90
13245;DHT22;6689;53.400;12.486;2023-06-26T11:37:32;34.20;99.90
13245;DHT22;6689;53.400;12.486;2023-06-26T11:40:00;34.40;99.90
13245;DHT22;6689;53.400;12.486;2023-06-26T11:42:43;34.30;99.90
13245;DHT22;6689;53.400;12.486;2023-06-26T11:45:12;34.30;99.90
13245;DHT22;6689;53.400;12.486;2023-06-26T11:47:39;34.40;99.90
13245;DHT22;6689;53.400;12.486;2023-06-26T11:50:14;34.40;99.90
13245;DHT22;6689;53.400;12.486;2023-06-26T11:52:41;34.50;99.90
13245;DHT22;6689;53.400;12.486;2023-06-26T11:55:09;34.50;99.90
13245;DHT22;6689;53.400;12.486;2023-06-26T11:57:38;34.50;99.90
13245;DHT22;6689;53.400;12.486;2023-06-26T12:00:16;34.50;99.90
13245;DHT22;6689;53.400;12.486;2023-06-26T12:02:44;34.50;99.90
13245;DHT22;6689;53.400;12.486;2023-06-26T12:05:12;34.60;99.90
13245;DHT22;6689;53.400;12.486;2023-06-26T12:07:40;34.50;99.90
13245;DHT22;6689;53.400;12.486;2023-06-26T12:10:09;34.30;99.90
13245;DHT22;6689;53.400;12.486;2023-06-26T12:12:37;34.30;99.90
13245;DHT22;6689;53.400;12.486;2023-06-26T12:15:07;34.10;99.90
13245;DHT22;6689;53.400;12.486;2023-06-26T12:17:38;34.00;99.90
13245;DHT22;6689;53.400;12.486;2023-06-26T12:20:17;34.00;99.90
13245;DHT22;6689;53.400;12.486;2023-06-26T12:22:46;33.60;99.90
13245;DHT22;6689;53.400;12.486;2023-06-26T12:25:14;33.40;99.90
13245;DHT22;6689;53.400;12.486;2023-06-26T12:27:44;33.20;99.90
13245;DHT22;6689;53.400;12.486;2023-06-26T12:30:13;33.00;99.90
13245;DHT22;6689;53.400;12.486;2023-06-26T12:32:44;32.90;99.90
13245;DHT22;6689;53.400;12.486;2023-06-26T12:35:12;32.70;99.90
13245;DHT22;6689;53.400;12.486;2023-06-26T12:37:39;32.50;99.90
13245;DHT22;6689;53.400;12.486;2023-06-26T12:40:16;32.40;99.90
13245;DHT22;6689;53.400;12.486;2023-06-26T12:42:44;32.20;99.90
13245;DHT22;6689;53.400;12.486;2023-06-26T12:45:13;32.00;99.90
13245;DHT22;6689;53.400;12.486;2023-06-26T12:47:42;31.60;99.90
13245;DHT22;6689;53.400;12.486;2023-06-26T12:50:11;30.50;99.90
13245;DHT22;6689;53.400;12.486;2023-06-26T12:52:39;28.90;99.90
13245;DHT22;6689;53.400;12.486;2023-06-26T12:55:08;28.80;99.90
13245;DHT22;6689;53.400;12.486;2023-06-26T13:04:24;25.20;1.00
13245;DHT22;6689;53.400;12.486;2023-06-26T13:06:51;25.00;1.00
13245;DHT22;6689;53.400;12.486;2023-06-26T13:09:20;25.20;1.00
13245;DHT22;6689;53.400;12.486;2023-06-26T13:11:47;25.40;1.00
13245;DHT22;6689;53.400;12.486;2023-06-26T13:14:15;25.80;1.00
13245;DHT22;6689;53.400;12.486;2023-06-26T13:16:42;25.90;1.00
13245;DHT22;6689;53.400;12.486;2023-06-26T13:19:09;25.80;1.00
13245;DHT22;6689;53.400;12.486;2023-06-26T13:21:38;25.90;1.00
13245;DHT22;6689;53.400;12.486;2023-06-26T13:24:06;26.00;1.00
13245;DHT22;6689;53.400;12.486;2023-06-26T13:26:33;26.20;1.00
13245;DHT22;6689;53.400;12.486;2023-06-26T13:29:00;26.20;1.00
13245;DHT22;6689;53.400;12.486;2023-06-26T13:31:28;26.40;1.00
13245;DHT22;6689;53.400;12.486;2023-06-26T13:33:57;26.10;1.00
13245;DHT22;6689;53.400;12.486;2023-06-26T13:36:25;26.20;1.00
13245;DHT22;6689;53.400;12.486;2023-06-26T13:38:53;26.30;1.00
13245;DHT22;6689;53.400;12.486;2023-06-26T13:41:22;26.60;1.00
13245;DHT22;6689;53.400;12.486;2023-06-26T13:43:49;26.50;1.00
13245;DHT22;6689;53.400;12.486;2023-06-26T13:46:17;26.80;1.00
13245;DHT22;6689;53.400;12.486;2023-06-26T13:48:44;26.80;1.00
13245;DHT22;6689;53.400;12.486;2023-06-26T13:51:12;26.70;1.00
13245;DHT22;6689;53.400;12.486;2023-06-26T13:53:39;27.10;1.00
13245;DHT22;6689;53.400;12.486;2023-06-26T13:56:08;27.20;1.00
13245;DHT22;6689;53.400;12.486;2023-06-26T13:58:35;27.20;1.00
13245;DHT22;6689;53.400;12.486;2023-06-26T14:01:05;27.10;1.00
13245;DHT22;6689;53.400;12.486;2023-06-26T14:03:32;27.10;1.00
13245;DHT22;6689;53.400;12.486;2023-06-26T14:05:59;26.90;1.00
13245;DHT22;6689;53.400;12.486;2023-06-26T14:08:26;26.10;1.00
13245;DHT22;6689;53.400;12.486;2023-06-26T14:10:54;26.30;1.00
13245;DHT22;6689;53.400;12.486;2023-06-26T14:13:22;26.30;1.00
13245;DHT22;6689;53.400;12.486;2023-06-26T14:15:50;26.00;1.00
13245;DHT22;6689;53.400;12.486;2023-06-26T14:18:18;26.00;1.00
13245;DHT22;6689;53.400;12.486;2023-06-26T14:20:46;25.80;1.00
13245;DHT22;6689;53.400;12.486;2023-06-26T14:23:14;25.70;1.00
13245;DHT22;6689;53.400;12.486;2023-06-26T14:25:41;25.70;1.00
13245;DHT22;6689;53.400;12.486;2023-06-26T14:28:08;25.90;1.00
13245;DHT22;6689;53.400;12.486;2023-06-26T14:30:36;25.70;1.00
13245;DHT22;6689;53.400;12.486;2023-06-26T14:33:04;25.70;1.00
13245;DHT22;6689;53.400;12.486;2023-06-26T14:35:31;25.50;1.00
13245;DHT22;6689;53.400;12.486;2023-06-26T14:37:59;25.90;1.00
13245;DHT22;6689;53.400;12.486;2023-06-26T14:40:26;25.80;1.00
13245;DHT22;6689;53.400;12.486;2023-06-26T14:42:53;26.10;1.00
13245;DHT22;6689;53.400;12.486;2023-06-26T14:45:21;25.90;1.00
13245;DHT22;6689;53.400;12.486;2023-06-26T14:47:49;25.70;1.00
13245;DHT22;6689;53.400;12.486;2023-06-26T14:50:16;26.00;1.00
13245;DHT22;6689;53.400;12.486;2023-06-26T14:52:44;25.90;1.00
13245;DHT22;6689;53.400;12.486;2023-06-26T14:55:11;25.90;1.00
13245;DHT22;6689;53.400;12.486;2023-06-26T14:57:38;26.00;1.00
13245;DHT22;6689;53.400;12.486;2023-06-26T15:00:07;26.00;1.00
13245;DHT22;6689;53.400;12.486;2023-06-26T15:02:35;26.10;1.00
13245;DHT22;6689;53.400;12.486;2023-06-26T15:05:03;25.80;1.00
13245;DHT22;6689;53.400;12.486;2023-06-26T15:07:31;26.20;1.00
13245;DHT22;6689;53.400;12.486;2023-06-26T15:09:59;26.00;1.00
13245;DHT22;6689;53.400;12.486;2023-06-26T15:12:26;26.20;1.00
13245;DHT22;6689;53.400;12.486;2023-06-26T15:14:54;26.40;1.00
13245;DHT22;6689;53.400;12.486;2023-06-26T15:17:21;26.20;1.00
13245;DHT22;6689;53.400;12.486;2023-06-26T15:19:48;26.00;1.00
13245;DHT22;6689;53.400;12.486;2023-06-26T15:22:17;26.10;1.00
13245;DHT22;6689;53.400;12.486;2023-06-26T15:24:45;26.10;1.00
13245;DHT22;6689;53.400;12.486;2023-06-26T15:27:12;26.00;1.00
13245;DHT22;6689;53.400;12.486;2023-06-26T15:29:40;26.00;1.00
13245;DHT22;6689;53.400;12.486;2023-06-26T15:32:08;26.10;1.00
13245;DHT22;6689;53.400;12.486;2023-06-26T15:34:35;25.90;1.00
13245;DHT22;6689;53.400;12.486;2023-06-26T15:37:03;26.00;1.00
13245;DHT22;6689;53.400;12.486;2023-06-26T15:39:31;26.10;1.00
13245;DHT22;6689;53.400;12.486;2023-06-26T15:41:58;26.30;1.00
13245;DHT22;6689;53.400;12.486;2023-06-26T15:44:26;26.10;1.00
13245;DHT22;6689;53.400;12.486;2023-06-26T15:46:53;26.20;1.00
13245;DHT22;6689;53.400;12.486;2023-06-26T15:49:20;26.10;1.00
13245;DHT22;6689;53.400;12.486;2023-06-26T15:51:48;26.00;1.00
13245;DHT22;6689;53.400;12.486;2023-06-26T15:54:15;25.60;1.00